Time;durP1;ratioP1;P1;durP2;ratioP2;P2;SDS_P1;SDS_P2;PMS_P1;PMS_P2;Temp;Humidity;BMP_temperature;BMP_pressure;BME280_temperature;BME280_humidity;BME280_pressure;Samples;Min_cycle;Max_cycle;Signal;HPM_P1;HPM_P2
2023/03/27 00:01:10;;;;;;;9.27;2.33;;;;;;;;;;4996561;28;20258;-67
2023/03/27 00:03:39;;;;;;;7.50;2.30;;;;;;;;;;5013289;28;20206;-67
2023/03/27 00:06:08;;;;;;;17.95;2.65;;;;;;;;;;5015663;28;20199;-67
2023/03/27 00:08:36;;;;;;;9.85;3.05;;;;;;;;;;5015514;28;20254;-67
2023/03/27 00:11:03;;;;;;;6.18;2.42;;;;;;;;;;4998350;28;20222;-67
2023/03/27 00:13:32;;;;;;;8.43;2.45;;;;;;;;;;4995905;28;20204;-67
2023/03/27 00:15:59;;;;;;;15.70;4.53;;;;;;;;;;4996242;28;20200;-67
2023/03/27 00:18:28;;;;;;;12.65;3.17;;;;;;;;;;4995853;28;20304;-67
2023/03/27 00:20:57;;;;;;;9.95;2.42;;;;;;;;;;4995873;28;20665;-67
2023/03/27 00:23:24;;;;;;;9.43;2.78;;;;;;;;;;4996045;28;20193;-67
2023/03/27 00:25:52;;;;;;;7.78;2.88;;;;;;;;;;4995798;28;20199;-67
2023/03/27 00:28:19;;;;;;;4.40;2.35;;;;;;;;;;4995640;28;20203;-67
2023/03/27 00:30:48;;;;;;;7.80;2.90;;;;;;;;;;4995603;28;20751;-67
2023/03/27 00:33:15;;;;;;;7.50;2.55;;;;;;;;;;4995554;28;20291;-67
2023/03/27 00:35:46;;;;;;;10.23;2.70;;;;;;;;;;4996018;28;20230;-67
2023/03/27 00:38:15;;;;;;;9.35;2.58;;;;;;;;;;4996067;28;20189;-67
2023/03/27 00:40:43;;;;;;;8.68;3.30;;;;;;;;;;4995818;28;20203;-67
2023/03/27 00:43:24;;;;;;;13.18;3.05;;;;;;;;;;4995656;28;20195;-67
2023/03/27 00:45:54;;;;;;;14.43;2.72;;;;;;;;;;4995437;28;20211;-67
2023/03/27 00:48:21;;;;;;;10.05;2.33;;;;;;;;;;4995644;28;20203;-67
2023/03/27 00:50:50;;;;;;;5.88;2.38;;;;;;;;;;4994886;28;20216;-67
2023/03/27 00:53:21;;;;;;;17.40;3.70;;;;;;;;;;4995129;28;20199;-67
2023/03/27 00:55:50;;;;;;;6.38;3.00;;;;;;;;;;4995615;28;20196;-67
2023/03/27 00:58:19;;;;;;;5.82;3.13;;;;;;;;;;4995128;28;20736;-67
2023/03/27 01:00:47;;;;;;;7.45;2.60;;;;;;;;;;4995730;28;20199;-67
2023/03/27 01:03:15;;;;;;;12.73;3.15;;;;;;;;;;5009157;28;20207;-67
2023/03/27 01:05:42;;;;;;;9.43;2.55;;;;;;;;;;5015274;28;20296;-67
2023/03/27 01:08:10;;;;;;;7.15;3.17;;;;;;;;;;5014733;28;20198;-67
2023/03/27 01:10:47;;;;;;;6.32;2.55;;;;;;;;;;5014040;28;20219;-67
2023/03/27 01:13:22;;;;;;;14.05;3.45;;;;;;;;;;5014419;28;20197;-67
2023/03/27 01:15:54;;;;;;;7.18;2.50;;;;;;;;;;5014967;28;20191;-67
2023/03/27 01:18:28;;;;;;;4.80;2.45;;;;;;;;;;5014444;28;20656;-67
2023/03/27 01:21:14;;;;;;;6.03;2.30;;;;;;;;;;5015478;28;20190;-67
2023/03/27 01:23:59;;;;;;;7.90;2.47;;;;;;;;;;5014505;28;20193;-67
2023/03/27 01:26:42;;;;;;;9.55;3.03;;;;;;;;;;4984944;28;20659;-67
2023/03/27 01:29:11;;;;;;;12.13;3.17;;;;;;;;;;5015010;28;20190;-67
2023/03/27 01:31:50;;;;;;;11.10;2.70;;;;;;;;;;5014341;28;20226;-67
2023/03/27 01:34:41;;;;;;;10.00;3.50;;;;;;;;;;5013967;28;20244;-67
2023/03/27 01:37:15;;;;;;;7.53;3.30;;;;;;;;;;5014529;28;20263;-67
2023/03/27 01:39:48;;;;;;;8.70;3.67;;;;;;;;;;5014179;28;20206;-67
2023/03/27 01:42:19;;;;;;;6.32;2.20;;;;;;;;;;5014079;28;20197;-67
2023/03/27 01:44:48;;;;;;;5.95;3.03;;;;;;;;;;5014603;28;20614;-67
2023/03/27 01:47:19;;;;;;;6.60;2.72;;;;;;;;;;5014278;28;20193;-67
2023/03/27 01:49:50;;;;;;;7.50;3.67;;;;;;;;;;5014309;28;20631;-67
2023/03/27 01:52:19;;;;;;;14.35;3.58;;;;;;;;;;5014972;28;20194;-67
2023/03/27 01:54:54;;;;;;;6.47;2.63;;;;;;;;;;5014230;28;20258;-66
2023/03/27 01:57:24;;;;;;;7.28;3.63;;;;;;;;;;5014376;28;20190;-66
2023/03/27 01:59:54;;;;;;;12.90;3.05;;;;;;;;;;5013602;28;20261;-67
2023/03/27 02:02:22;;;;;;;12.30;2.60;;;;;;;;;;5012847;28;20286;-67
2023/03/27 02:04:52;;;;;;;13.40;3.40;;;;;;;;;;5013491;28;20203;-67
2023/03/27 02:07:23;;;;;;;7.15;3.30;;;;;;;;;;5013892;28;20203;-67
2023/03/27 02:09:54;;;;;;;12.45;3.25;;;;;;;;;;5005767;28;20214;-67
2023/03/27 02:12:24;;;;;;;12.18;3.35;;;;;;;;;;4993983;28;20194;-67
2023/03/27 02:14:54;;;;;;;9.10;3.17;;;;;;;;;;4994476;28;20196;-68
2023/03/27 02:17:24;;;;;;;7.05;3.35;;;;;;;;;;4994730;28;20195;-67
2023/03/27 02:19:55;;;;;;;9.27;2.80;;;;;;;;;;4994034;28;20190;-67
2023/03/27 02:22:22;;;;;;;6.10;2.70;;;;;;;;;;4993914;28;20182;-67
2023/03/27 02:24:50;;;;;;;9.63;2.88;;;;;;;;;;4994457;28;20207;-67
2023/03/27 02:27:23;;;;;;;10.95;4.25;;;;;;;;;;4994134;28;20203;-66
2023/03/27 02:29:55;;;;;;;5.07;2.70;;;;;;;;;;4993733;28;20182;-67
2023/03/27 02:32:27;;;;;;;6.35;2.65;;;;;;;;;;4994331;28;20197;-67
2023/03/27 02:35:02;;;;;;;4.20;2.78;;;;;;;;;;4993445;28;20270;-67
2023/03/27 02:37:35;;;;;;;10.88;2.88;;;;;;;;;;4994107;28;20189;-67
2023/03/27 02:40:08;;;;;;;7.20;2.45;;;;;;;;;;4993732;28;20198;-67
2023/03/27 02:42:41;;;;;;;9.38;3.05;;;;;;;;;;4993816;28;20192;-67
2023/03/27 02:45:11;;;;;;;6.32;2.63;;;;;;;;;;4993611;28;20195;-67
2023/03/27 02:47:41;;;;;;;6.32;3.00;;;;;;;;;;4993651;28;20187;-67
2023/03/27 02:50:10;;;;;;;7.45;3.28;;;;;;;;;;4993716;28;20226;-67
2023/03/27 02:52:40;;;;;;;5.32;2.50;;;;;;;;;;4994127;28;20196;-67
2023/03/27 02:55:09;;;;;;;6.20;3.08;;;;;;;;;;4993793;28;20199;-67
2023/03/27 02:57:38;;;;;;;8.45;3.50;;;;;;;;;;4993580;28;20299;-66
2023/03/27 03:00:23;;;;;;;5.25;2.85;;;;;;;;;;4993980;28;20203;-67
2023/03/27 03:02:52;;;;;;;5.90;2.50;;;;;;;;;;4996923;28;20228;-67
2023/03/27 03:05:21;;;;;;;14.25;3.83;;;;;;;;;;4993780;28;20599;-67
2023/03/27 03:07:49;;;;;;;8.60;2.78;;;;;;;;;;4993456;28;20194;-67
2023/03/27 03:10:17;;;;;;;8.07;2.85;;;;;;;;;;4996289;28;20225;-67
2023/03/27 03:12:45;;;;;;;11.40;3.03;;;;;;;;;;4995204;28;20229;-67
2023/03/27 03:15:13;;;;;;;11.15;2.50;;;;;;;;;;4997051;28;20200;-67
2023/03/27 03:17:40;;;;;;;10.82;3.40;;;;;;;;;;4997665;28;20258;-67
2023/03/27 03:20:09;;;;;;;10.18;3.25;;;;;;;;;;4997272;28;20224;-67
2023/03/27 03:22:36;;;;;;;11.38;3.03;;;;;;;;;;4997345;28;20209;-67
2023/03/27 03:25:04;;;;;;;5.45;2.78;;;;;;;;;;4996892;28;20210;-67
2023/03/27 03:27:32;;;;;;;6.93;3.25;;;;;;;;;;4997164;28;20259;-67
2023/03/27 03:30:03;;;;;;;8.30;3.00;;;;;;;;;;4996927;28;20661;-67
2023/03/27 03:32:30;;;;;;;10.95;3.75;;;;;;;;;;4997411;28;20187;-67
2023/03/27 03:35:00;;;;;;;9.82;2.85;;;;;;;;;;4997166;28;20237;-69
2023/03/27 03:37:27;;;;;;;3.80;2.40;;;;;;;;;;4997061;28;20648;-67
2023/03/27 03:39:55;;;;;;;5.78;2.75;;;;;;;;;;4997287;28;20204;-67
2023/03/27 03:42:22;;;;;;;12.13;3.58;;;;;;;;;;4996892;28;20197;-67
2023/03/27 03:44:49;;;;;;;13.40;2.65;;;;;;;;;;4996644;28;20203;-67
2023/03/27 03:47:18;;;;;;;9.13;2.28;;;;;;;;;;4997759;28;20199;-68
2023/03/27 03:49:45;;;;;;;3.08;2.40;;;;;;;;;;5015929;28;20210;-68
2023/03/27 03:52:12;;;;;;;13.35;2.88;;;;;;;;;;5015182;28;20684;-67
2023/03/27 03:54:39;;;;;;;7.82;2.97;;;;;;;;;;5015951;28;20200;-67
2023/03/27 03:57:07;;;;;;;4.88;2.10;;;;;;;;;;5015318;28;20201;-68
2023/03/27 03:59:34;;;;;;;15.15;3.78;;;;;;;;;;5015385;28;20201;-67
2023/03/27 04:02:01;;;;;;;6.97;2.35;;;;;;;;;;5015533;28;20207;-67
2023/03/27 04:04:32;;;;;;;9.10;3.63;;;;;;;;;;5015305;28;20629;-67
2023/03/27 04:06:59;;;;;;;5.72;2.90;;;;;;;;;;5015565;28;20195;-67
2023/03/27 04:09:26;;;;;;;10.77;4.32;;;;;;;;;;5015534;28;20211;-67
2023/03/27 04:11:53;;;;;;;6.63;2.50;;;;;;;;;;5014713;28;20575;-67
2023/03/27 04:14:20;;;;;;;8.98;3.30;;;;;;;;;;5015535;28;20198;-67
2023/03/27 04:16:47;;;;;;;6.85;3.15;;;;;;;;;;5015304;28;20203;-67
2023/03/27 04:19:17;;;;;;;11.73;3.45;;;;;;;;;;5014957;28;20234;-67
2023/03/27 04:21:46;;;;;;;4.65;2.70;;;;;;;;;;5015479;28;20559;-67
2023/03/27 04:24:13;;;;;;;9.85;2.63;;;;;;;;;;5014613;28;20210;-67
2023/03/27 04:26:40;;;;;;;8.27;3.15;;;;;;;;;;5015029;28;20197;-67
2023/03/27 04:29:09;;;;;;;4.50;2.50;;;;;;;;;;5015384;28;20199;-68
2023/03/27 04:31:37;;;;;;;4.20;3.30;;;;;;;;;;5014763;28;20218;-67
2023/03/27 04:34:07;;;;;;;5.70;2.35;;;;;;;;;;5015025;28;20558;-71
2023/03/27 04:36:34;;;;;;;5.60;2.97;;;;;;;;;;5014874;28;20321;-71
2023/03/27 04:39:03;;;;;;;7.35;2.88;;;;;;;;;;5015509;28;20310;-69
2023/03/27 04:41:31;;;;;;;4.07;2.47;;;;;;;;;;5014952;28;20194;-69
2023/03/27 04:43:59;;;;;;;8.13;2.80;;;;;;;;;;5015269;28;20227;-69
2023/03/27 04:46:26;;;;;;;9.68;2.90;;;;;;;;;;5015325;28;20675;-69
2023/03/27 04:48:55;;;;;;;13.45;3.45;;;;;;;;;;5015133;28;20238;-69
2023/03/27 04:51:25;;;;;;;4.47;2.75;;;;;;;;;;5014068;28;20217;-69
2023/03/27 04:53:55;;;;;;;6.25;2.67;;;;;;;;;;5014845;28;20189;-69
2023/03/27 04:56:23;;;;;;;8.15;2.60;;;;;;;;;;5014911;28;20253;-69
2023/03/27 04:58:51;;;;;;;5.15;2.40;;;;;;;;;;5015216;28;20256;-69
2023/03/27 05:01:18;;;;;;;5.90;3.45;;;;;;;;;;5014737;28;20207;-69
2023/03/27 05:03:47;;;;;;;16.48;3.28;;;;;;;;;;5015568;28;20210;-69
2023/03/27 05:06:15;;;;;;;5.53;2.70;;;;;;;;;;5015055;28;20237;-69
2023/03/27 05:08:42;;;;;;;6.25;3.17;;;;;;;;;;5014579;28;20203;-69
2023/03/27 05:11:09;;;;;;;13.15;3.70;;;;;;;;;;5014142;28;20312;-70
2023/03/27 05:13:38;;;;;;;6.20;2.53;;;;;;;;;;5014161;28;20256;-69
2023/03/27 05:16:05;;;;;;;3.45;2.60;;;;;;;;;;5014521;28;20563;-69
2023/03/27 05:18:33;;;;;;;8.07;2.58;;;;;;;;;;5014452;28;20193;-70
2023/03/27 05:21:01;;;;;;;14.13;3.00;;;;;;;;;;5014288;28;20202;-69
2023/03/27 05:23:28;;;;;;;11.50;2.63;;;;;;;;;;5014073;28;20240;-69
2023/03/27 05:25:55;;;;;;;6.35;3.28;;;;;;;;;;5014499;28;20249;-69
2023/03/27 05:28:22;;;;;;;7.20;3.10;;;;;;;;;;5014377;28;20202;-70
2023/03/27 05:30:52;;;;;;;8.02;2.10;;;;;;;;;;5013995;28;20195;-69
2023/03/27 05:33:19;;;;;;;9.52;3.03;;;;;;;;;;5013989;28;20202;-69
2023/03/27 05:35:48;;;;;;;12.23;2.88;;;;;;;;;;5013536;28;20233;-69
2023/03/27 05:38:15;;;;;;;4.65;2.35;;;;;;;;;;5013939;28;20286;-70
2023/03/27 05:40:43;;;;;;;3.35;2.25;;;;;;;;;;5013865;28;20207;-69
2023/03/27 05:43:10;;;;;;;7.03;2.45;;;;;;;;;;5013713;28;20201;-70
2023/03/27 05:45:37;;;;;;;6.25;2.95;;;;;;;;;;5014445;28;20199;-70
2023/03/27 05:48:06;;;;;;;11.48;2.83;;;;;;;;;;5013921;28;20196;-69
2023/03/27 05:50:35;;;;;;;4.18;2.25;;;;;;;;;;5013693;28;20207;-69
2023/03/27 05:53:03;;;;;;;5.68;2.60;;;;;;;;;;5013103;28;20222;-70
2023/03/27 05:55:30;;;;;;;7.22;2.10;;;;;;;;;;5013894;28;20199;-69
2023/03/27 05:57:57;;;;;;;3.25;2.50;;;;;;;;;;5014005;28;20203;-69
2023/03/27 06:00:26;;;;;;;6.90;2.92;;;;;;;;;;5013722;28;20709;-69
2023/03/27 06:02:55;;;;;;;4.40;2.42;;;;;;;;;;5013256;28;20207;-69
2023/03/27 06:05:23;;;;;;;6.93;2.53;;;;;;;;;;5012723;28;20199;-70
2023/03/27 06:07:51;;;;;;;6.57;2.63;;;;;;;;;;5013551;28;20291;-69
2023/03/27 06:10:20;;;;;;;9.68;2.58;;;;;;;;;;5013307;28;20207;-69
2023/03/27 06:12:48;;;;;;;7.60;2.00;;;;;;;;;;5013253;28;20313;-69
2023/03/27 06:15:15;;;;;;;3.67;1.95;;;;;;;;;;5013071;28;20256;-69
2023/03/27 06:17:43;;;;;;;9.85;2.75;;;;;;;;;;5013570;28;20209;-69
2023/03/27 06:20:12;;;;;;;10.55;3.78;;;;;;;;;;5013418;28;20230;-69
2023/03/27 06:22:42;;;;;;;4.72;2.35;;;;;;;;;;5013253;28;20238;-69
2023/03/27 06:25:10;;;;;;;7.15;3.58;;;;;;;;;;5013797;28;20225;-70
2023/03/27 06:27:38;;;;;;;4.03;3.00;;;;;;;;;;5013575;28;20210;-70
2023/03/27 06:30:06;;;;;;;7.38;2.75;;;;;;;;;;5013493;28;20269;-70
2023/03/27 06:32:34;;;;;;;6.50;2.47;;;;;;;;;;5012545;28;20703;-71
2023/03/27 06:35:02;;;;;;;5.97;2.30;;;;;;;;;;5012772;28;20237;-70
2023/03/27 06:37:32;;;;;;;4.35;2.42;;;;;;;;;;5012479;28;20199;-69
2023/03/27 06:40:01;;;;;;;9.27;2.53;;;;;;;;;;5013058;28;20209;-69
2023/03/27 06:42:29;;;;;;;8.65;2.50;;;;;;;;;;5013607;28;20211;-69
2023/03/27 06:44:56;;;;;;;11.73;2.88;;;;;;;;;;5013008;28;20205;-69
2023/03/27 06:47:23;;;;;;;4.28;2.40;;;;;;;;;;5014061;28;20204;-69
2023/03/27 06:49:50;;;;;;;5.80;2.30;;;;;;;;;;5016919;28;20286;-71
2023/03/27 06:52:18;;;;;;;4.63;2.28;;;;;;;;;;5016407;28;20228;-69
2023/03/27 06:54:45;;;;;;;9.70;2.95;;;;;;;;;;5016610;28;20249;-69
2023/03/27 06:57:14;;;;;;;3.72;1.85;;;;;;;;;;5016885;28;20222;-70
2023/03/27 06:59:42;;;;;;;4.22;2.45;;;;;;;;;;5017152;28;20202;-69
2023/03/27 07:02:10;;;;;;;3.38;2.30;;;;;;;;;;5017091;28;20210;-69
2023/03/27 07:04:38;;;;;;;5.20;2.75;;;;;;;;;;5017008;28;20195;-71
2023/03/27 07:07:05;;;;;;;4.45;2.50;;;;;;;;;;5016620;28;20240;-69
2023/03/27 07:09:33;;;;;;;2.63;1.80;;;;;;;;;;5016795;28;20194;-69
2023/03/27 07:12:00;;;;;;;9.35;2.10;;;;;;;;;;5016508;28;20311;-70
2023/03/27 07:14:28;;;;;;;3.60;2.50;;;;;;;;;;5016483;28;20217;-69
2023/03/27 07:16:55;;;;;;;4.68;2.78;;;;;;;;;;5016600;28;20211;-70
2023/03/27 07:19:23;;;;;;;5.00;2.05;;;;;;;;;;5016676;28;20195;-69
2023/03/27 07:21:50;;;;;;;8.02;2.40;;;;;;;;;;5017500;28;20204;-69
2023/03/27 07:24:17;;;;;;;7.43;2.72;;;;;;;;;;5016311;28;20200;-69
2023/03/27 07:26:44;;;;;;;5.80;2.33;;;;;;;;;;5016558;28;20231;-69
2023/03/27 07:29:12;;;;;;;9.90;3.67;;;;;;;;;;5016439;28;20569;-69
2023/03/27 07:31:41;;;;;;;5.10;2.83;;;;;;;;;;5016100;28;20251;-69
2023/03/27 07:34:08;;;;;;;8.35;2.50;;;;;;;;;;5016074;28;20202;-69
2023/03/27 07:36:35;;;;;;;4.40;2.95;;;;;;;;;;5016245;28;20235;-69
2023/03/27 07:39:03;;;;;;;4.82;2.25;;;;;;;;;;5016431;28;20218;-69
2023/03/27 07:41:31;;;;;;;3.88;2.40;;;;;;;;;;5016395;28;20197;-69
2023/03/27 07:43:58;;;;;;;6.38;2.40;;;;;;;;;;5015665;28;20278;-69
2023/03/27 07:46:26;;;;;;;5.60;2.22;;;;;;;;;;5016146;28;20291;-69
2023/03/27 07:48:56;;;;;;;9.55;3.55;;;;;;;;;;5015743;28;20210;-69
2023/03/27 07:51:23;;;;;;;5.15;2.10;;;;;;;;;;5015722;28;20196;-69
2023/03/27 07:53:57;;;;;;;11.93;2.97;;;;;;;;;;5015422;28;20209;-70
2023/03/27 07:56:25;;;;;;;7.95;2.35;;;;;;;;;;5015936;28;20192;-69
2023/03/27 07:58:52;;;;;;;5.53;2.33;;;;;;;;;;5015087;28;20200;-69
2023/03/27 08:01:19;;;;;;;5.07;2.00;;;;;;;;;;5015782;28;20657;-69
2023/03/27 08:03:47;;;;;;;7.05;2.50;;;;;;;;;;5015625;28;20683;-70
2023/03/27 08:06:15;;;;;;;2.17;2.00;;;;;;;;;;5015361;28;20196;-70
2023/03/27 08:08:42;;;;;;;3.28;1.88;;;;;;;;;;5016064;28;20226;-69
2023/03/27 08:11:10;;;;;;;7.00;2.15;;;;;;;;;;5015004;28;20227;-70
2023/03/27 08:13:38;;;;;;;10.80;2.22;;;;;;;;;;5015369;28;20321;-70
2023/03/27 08:16:06;;;;;;;9.18;2.42;;;;;;;;;;5015288;28;20204;-69
2023/03/27 08:18:35;;;;;;;3.38;3.17;;;;;;;;;;5015389;28;20198;-68
2023/03/27 08:21:03;;;;;;;5.68;2.13;;;;;;;;;;5015217;28;20195;-70
2023/03/27 08:23:32;;;;;;;5.30;2.63;;;;;;;;;;5014900;28;20223;-69
2023/03/27 08:25:59;;;;;;;5.60;2.22;;;;;;;;;;5015323;28;20206;-69
2023/03/27 08:28:27;;;;;;;7.50;2.95;;;;;;;;;;5015218;28;20203;-70
2023/03/27 08:30:55;;;;;;;4.93;3.50;;;;;;;;;;5014762;28;20195;-70
2023/03/27 08:33:23;;;;;;;4.63;2.20;;;;;;;;;;5014832;28;20295;-70
2023/03/27 08:35:50;;;;;;;5.30;2.40;;;;;;;;;;5014762;28;20231;-70
2023/03/27 08:38:18;;;;;;;3.53;1.90;;;;;;;;;;5015338;28;20386;-69
2023/03/27 08:40:49;;;;;;;5.30;2.55;;;;;;;;;;5015372;28;20204;-69
2023/03/27 08:43:18;;;;;;;5.95;3.38;;;;;;;;;;5015315;28;20309;-69
2023/03/27 08:45:47;;;;;;;6.63;1.98;;;;;;;;;;5014746;28;20199;-69
2023/03/27 08:48:17;;;;;;;3.88;2.53;;;;;;;;;;5015295;28;20198;-69
2023/03/27 08:50:47;;;;;;;4.45;1.98;;;;;;;;;;5015377;28;20198;-69
2023/03/27 08:53:19;;;;;;;4.85;2.10;;;;;;;;;;5014833;28;20231;-69
2023/03/27 08:55:46;;;;;;;3.83;1.88;;;;;;;;;;5014826;28;20200;-69
2023/03/27 08:58:18;;;;;;;8.80;2.38;;;;;;;;;;5015032;28;20210;-69
2023/03/27 09:00:47;;;;;;;5.68;2.35;;;;;;;;;;5015009;28;20221;-69
2023/03/27 09:03:18;;;;;;;12.98;2.42;;;;;;;;;;5015031;28;20644;-68
2023/03/27 09:05:49;;;;;;;8.40;2.42;;;;;;;;;;5014861;28;20203;-69
2023/03/27 09:08:22;;;;;;;7.22;2.40;;;;;;;;;;5014624;28;20193;-68
2023/03/27 09:10:51;;;;;;;9.02;2.10;;;;;;;;;;5014234;28;20188;-68
2023/03/27 09:13:21;;;;;;;6.47;2.33;;;;;;;;;;5014753;28;20220;-69
2023/03/27 09:15:53;;;;;;;5.68;1.67;;;;;;;;;;5014418;28;20191;-70
2023/03/27 09:18:22;;;;;;;5.20;1.85;;;;;;;;;;5014520;28;20180;-69
2023/03/27 09:20:51;;;;;;;3.00;2.25;;;;;;;;;;5014629;28;20396;-69
2023/03/27 09:23:19;;;;;;;6.97;2.05;;;;;;;;;;5012409;28;20210;-70
2023/03/27 09:25:48;;;;;;;2.65;1.98;;;;;;;;;;5013737;28;20214;-69
2023/03/27 09:28:18;;;;;;;2.20;2.00;;;;;;;;;;5013675;28;20284;-70
2023/03/27 09:30:47;;;;;;;8.13;4.00;;;;;;;;;;5014051;28;20188;-69
2023/03/27 09:33:14;;;;;;;4.93;2.30;;;;;;;;;;5014295;28;20280;-69
2023/03/27 09:35:42;;;;;;;6.22;1.98;;;;;;;;;;5013970;28;20231;-69
2023/03/27 09:38:22;;;;;;;3.38;2.50;;;;;;;;;;5014547;28;20207;-69
2023/03/27 09:40:52;;;;;;;3.25;1.40;;;;;;;;;;5014045;28;20253;-69
2023/03/27 09:43:21;;;;;;;5.57;1.77;;;;;;;;;;5014058;28;20651;-69
2023/03/27 09:45:50;;;;;;;6.82;1.98;;;;;;;;;;5013862;28;20565;-69
2023/03/27 09:48:24;;;;;;;5.38;2.13;;;;;;;;;;5013269;28;20200;-70
2023/03/27 09:50:51;;;;;;;3.35;1.52;;;;;;;;;;5013506;28;20188;-69
2023/03/27 09:53:21;;;;;;;13.20;1.60;;;;;;;;;;5003009;28;20243;-69
2023/03/27 09:55:51;;;;;;;3.63;1.85;;;;;;;;;;4994040;28;20201;-71
2023/03/27 09:58:24;;;;;;;3.67;1.45;;;;;;;;;;4994330;28;20227;-69
2023/03/27 10:01:06;;;;;;;9.10;2.08;;;;;;;;;;4994550;28;20192;-70
2023/03/27 10:03:37;;;;;;;2.95;1.88;;;;;;;;;;4994534;28;20189;-69
2023/03/27 10:06:09;;;;;;;4.40;1.65;;;;;;;;;;4994120;28;20682;-69
2023/03/27 10:08:38;;;;;;;4.70;1.65;;;;;;;;;;4993387;28;20208;-69
2023/03/27 10:11:07;;;;;;;5.10;1.77;;;;;;;;;;4993618;28;20207;-70
2023/03/27 10:13:35;;;;;;;3.47;1.73;;;;;;;;;;4994434;28;20267;-69
2023/03/27 10:16:05;;;;;;;3.58;1.60;;;;;;;;;;4993751;28;20661;-69
2023/03/27 10:18:34;;;;;;;4.05;1.52;;;;;;;;;;4993739;28;20244;-69
2023/03/27 10:21:03;;;;;;;1.33;1.20;;;;;;;;;;4993928;28;20204;-69
2023/03/27 10:23:40;;;;;;;3.28;1.50;;;;;;;;;;4992822;28;20209;-69
2023/03/27 10:26:08;;;;;;;3.35;1.88;;;;;;;;;;4993768;28;20187;-69
2023/03/27 10:28:37;;;;;;;2.83;1.45;;;;;;;;;;4992981;28;20207;-69
2023/03/27 10:31:09;;;;;;;3.70;1.80;;;;;;;;;;4993573;28;20207;-69
2023/03/27 10:33:38;;;;;;;4.60;1.70;;;;;;;;;;4993851;28;20216;-69
2023/03/27 10:36:07;;;;;;;2.47;2.28;;;;;;;;;;4994005;28;20236;-69
2023/03/27 10:38:36;;;;;;;3.88;1.50;;;;;;;;;;4993746;28;20203;-69
2023/03/27 10:41:03;;;;;;;2.30;1.75;;;;;;;;;;4993593;28;20203;-69
2023/03/27 10:43:34;;;;;;;2.65;1.90;;;;;;;;;;4993344;28;20669;-70
2023/03/27 10:46:03;;;;;;;3.60;1.70;;;;;;;;;;4993257;28;20220;-69
2023/03/27 10:48:40;;;;;;;5.80;1.50;;;;;;;;;;4992895;28;20436;-69
2023/03/27 10:51:15;;;;;;;3.22;1.58;;;;;;;;;;4993577;28;20271;-69
2023/03/27 10:53:43;;;;;;;5.88;1.48;;;;;;;;;;4993284;28;20204;-69
2023/03/27 10:56:14;;;;;;;2.72;1.58;;;;;;;;;;4993402;28;20595;-69
2023/03/27 10:58:44;;;;;;;3.63;1.60;;;;;;;;;;4993333;28;20185;-69
2023/03/27 11:01:15;;;;;;;2.60;1.90;;;;;;;;;;4993609;28;20204;-68
2023/03/27 11:03:47;;;;;;;5.70;1.85;;;;;;;;;;4993161;28;20247;-68
2023/03/27 11:06:17;;;;;;;1.90;1.67;;;;;;;;;;4993131;28;20279;-70
2023/03/27 11:08:51;;;;;;;2.63;1.85;;;;;;;;;;4992895;28;20749;-69
2023/03/27 11:11:23;;;;;;;9.82;2.08;;;;;;;;;;4992968;28;20184;-67
2023/03/27 11:13:50;;;;;;;4.93;1.80;;;;;;;;;;4993276;28;20224;-67
2023/03/27 11:16:21;;;;;;;2.95;1.70;;;;;;;;;;4993385;28;20200;-69
2023/03/27 11:18:51;;;;;;;3.33;1.65;;;;;;;;;;4993598;28;20185;-67
2023/03/27 11:21:22;;;;;;;3.80;1.70;;;;;;;;;;4993906;28;20613;-68
2023/03/27 11:23:51;;;;;;;2.47;1.85;;;;;;;;;;4992918;28;20254;-69
2023/03/27 11:26:21;;;;;;;2.20;1.50;;;;;;;;;;4992786;28;20204;-69
2023/03/27 11:28:52;;;;;;;3.10;1.90;;;;;;;;;;4992810;28;20185;-68
2023/03/27 11:31:24;;;;;;;4.55;2.70;;;;;;;;;;4992743;28;20196;-68
2023/03/27 11:33:55;;;;;;;1.98;1.67;;;;;;;;;;4994525;28;20671;-68
2023/03/27 11:36:29;;;;;;;8.98;2.53;;;;;;;;;;4996422;28;20251;-70
2023/03/27 11:39:03;;;;;;;4.40;1.70;;;;;;;;;;4996477;28;20185;-68
2023/03/27 11:41:30;;;;;;;5.05;2.42;;;;;;;;;;4997027;28;20252;-68
2023/03/27 11:43:57;;;;;;;8.13;1.52;;;;;;;;;;4996629;28;20212;-68
2023/03/27 11:46:30;;;;;;;1.92;1.40;;;;;;;;;;4996355;28;20205;-70
2023/03/27 11:49:03;;;;;;;2.25;1.20;;;;;;;;;;4996334;28;20191;-71
2023/03/27 11:51:37;;;;;;;2.67;1.40;;;;;;;;;;4996305;28;20188;-66
2023/03/27 11:54:10;;;;;;;2.50;1.52;;;;;;;;;;4996132;28;20205;-67
2023/03/27 11:56:44;;;;;;;1.40;1.30;;;;;;;;;;4996168;28;20198;-68
2023/03/27 11:59:17;;;;;;;2.08;1.80;;;;;;;;;;4996557;28;20192;-67
2023/03/27 12:01:48;;;;;;;1.42;1.30;;;;;;;;;;4996101;28;20277;-66
2023/03/27 12:04:23;;;;;;;3.00;1.63;;;;;;;;;;4996265;28;20220;-68
2023/03/27 12:06:51;;;;;;;2.30;1.45;;;;;;;;;;4995985;28;20557;-67
2023/03/27 12:09:39;;;;;;;5.43;1.80;;;;;;;;;;4995274;28;20201;-67
2023/03/27 12:12:15;;;;;;;1.50;1.40;;;;;;;;;;4996143;28;20200;-67
2023/03/27 12:14:51;;;;;;;1.35;1.17;;;;;;;;;;4996754;28;20303;-67
2023/03/27 12:17:26;;;;;;;3.25;1.63;;;;;;;;;;4996471;28;20195;-67
2023/03/27 12:20:09;;;;;;;1.98;1.23;;;;;;;;;;4996075;28;20206;-67
2023/03/27 12:22:40;;;;;;;3.08;1.73;;;;;;;;;;4995921;28;20213;-68
2023/03/27 12:25:34;;;;;;;4.00;1.30;;;;;;;;;;4995895;28;20224;-69
2023/03/27 12:28:05;;;;;;;2.45;1.20;;;;;;;;;;4960312;28;20200;-69
2023/03/27 12:30:36;;;;;;;5.18;1.20;;;;;;;;;;4995342;28;20197;-69
2023/03/27 12:33:25;;;;;;;4.78;1.85;;;;;;;;;;4995527;28;20275;-68
2023/03/27 12:35:56;;;;;;;1.52;1.42;;;;;;;;;;4994896;28;20236;-70
2023/03/27 12:38:26;;;;;;;2.35;1.10;;;;;;;;;;4995341;28;20189;-69
2023/03/27 12:41:01;;;;;;;3.42;1.20;;;;;;;;;;4996081;28;20204;-68
2023/03/27 12:43:30;;;;;;;6.28;1.63;;;;;;;;;;4995670;28;20608;-69
2023/03/27 12:46:15;;;;;;;1.48;1.38;;;;;;;;;;4994770;28;20204;-68
2023/03/27 12:48:52;;;;;;;1.20;1.10;;;;;;;;;;4995199;28;20189;-70
2023/03/27 12:51:36;;;;;;;2.85;1.60;;;;;;;;;;4994951;28;20203;-68
2023/03/27 12:54:13;;;;;;;6.35;1.30;;;;;;;;;;4994736;28;20298;-67
2023/03/27 12:56:41;;;;;;;3.17;1.58;;;;;;;;;;4995458;28;20193;-67
2023/03/27 12:59:15;;;;;;;2.45;1.50;;;;;;;;;;4995022;28;20204;-66
2023/03/27 13:01:52;;;;;;;5.80;1.80;;;;;;;;;;4994940;28;20665;-67
2023/03/27 13:04:30;;;;;;;3.30;1.45;;;;;;;;;;4994668;28;20645;-67
2023/03/27 13:07:03;;;;;;;2.03;1.52;;;;;;;;;;4994512;28;20189;-68
2023/03/27 13:09:46;;;;;;;4.20;1.52;;;;;;;;;;4994415;28;20192;-68
2023/03/27 13:12:21;;;;;;;1.48;1.38;;;;;;;;;;4994900;28;20181;-68
2023/03/27 13:14:55;;;;;;;1.95;1.20;;;;;;;;;;4994632;28;20262;-68
2023/03/27 13:17:41;;;;;;;1.30;1.20;;;;;;;;;;4995205;28;20190;-68
2023/03/27 13:20:15;;;;;;;5.65;1.95;;;;;;;;;;4995042;28;20191;-68
2023/03/27 13:22:52;;;;;;;1.42;1.30;;;;;;;;;;4994525;28;20239;-68
2023/03/27 13:25:30;;;;;;;1.80;1.70;;;;;;;;;;4995072;28;20193;-68
2023/03/27 13:28:15;;;;;;;2.55;1.33;;;;;;;;;;4994167;28;20201;-69
2023/03/27 13:30:45;;;;;;;3.53;1.50;;;;;;;;;;4993990;28;20207;-69
2023/03/27 13:33:15;;;;;;;1.40;1.30;;;;;;;;;;4994539;28;20202;-69
2023/03/27 13:35:51;;;;;;;1.75;1.65;;;;;;;;;;4994189;28;20239;-69
2023/03/27 13:38:39;;;;;;;2.55;1.30;;;;;;;;;;4994759;28;20283;-70
2023/03/27 13:41:21;;;;;;;3.72;1.80;;;;;;;;;;4994454;28;20205;-68
2023/03/27 13:43:51;;;;;;;2.47;1.50;;;;;;;;;;4982353;28;20234;-68
2023/03/27 13:46:23;;;;;;;1.27;1.17;;;;;;;;;;4993713;28;20205;-69
2023/03/27 13:49:05;;;;;;;1.90;1.60;;;;;;;;;;4994433;28;20188;-69
2023/03/27 13:51:49;;;;;;;2.25;1.45;;;;;;;;;;4994254;28;20203;-69
2023/03/27 13:54:31;;;;;;;3.60;1.88;;;;;;;;;;4994403;28;20220;-68
2023/03/27 13:57:04;;;;;;;2.75;1.30;;;;;;;;;;4993410;28;20189;-68
2023/03/27 14:00:02;;;;;;;7.43;2.28;;;;;;;;;;4994598;28;20188;-68
2023/03/27 14:02:47;;;;;;;3.28;2.20;;;;;;;;;;4993940;28;20227;-70
2023/03/27 14:05:24;;;;;;;3.25;1.85;;;;;;;;;;4994061;28;20204;-75
2023/03/27 14:07:59;;;;;;;3.67;1.80;;;;;;;;;;4993441;28;20185;-69
2023/03/27 14:10:41;;;;;;;2.20;1.65;;;;;;;;;;4993452;28;20184;-69
2023/03/27 14:13:17;;;;;;;3.72;1.42;;;;;;;;;;4993694;28;20204;-69
2023/03/27 14:16:02;;;;;;;3.00;1.70;;;;;;;;;;4993826;28;20212;-69
2023/03/27 14:18:43;;;;;;;3.40;1.67;;;;;;;;;;4993728;28;20224;-69
2023/03/27 14:21:12;;;;;;;1.95;1.50;;;;;;;;;;4993888;28;20195;-68
2023/03/27 14:23:44;;;;;;;1.50;1.35;;;;;;;;;;4993878;28;20204;-68
2023/03/27 14:26:17;;;;;;;2.30;1.75;;;;;;;;;;4993794;28;20216;-69
2023/03/27 14:28:50;;;;;;;2.03;1.55;;;;;;;;;;4994660;28;20185;-69
2023/03/27 14:31:18;;;;;;;2.13;1.70;;;;;;;;;;4993792;28;20674;-69
2023/03/27 14:33:49;;;;;;;3.50;1.80;;;;;;;;;;4993623;28;20266;-69
2023/03/27 14:36:16;;;;;;;4.55;1.88;;;;;;;;;;4994024;28;20229;-68
2023/03/27 14:38:43;;;;;;;7.10;1.65;;;;;;;;;;4993855;28;20675;-68
2023/03/27 14:41:21;;;;;;;2.42;1.90;;;;;;;;;;4994184;28;20207;-68
2023/03/27 14:43:48;;;;;;;3.95;1.80;;;;;;;;;;4994361;28;20284;-69
2023/03/27 14:46:16;;;;;;;1.77;1.30;;;;;;;;;;4994165;28;20200;-69
2023/03/27 14:48:44;;;;;;;2.85;1.48;;;;;;;;;;4993947;28;20204;-69
2023/03/27 14:51:14;;;;;;;1.40;1.02;;;;;;;;;;4994255;28;20288;-68
2023/03/27 14:53:43;;;;;;;2.40;1.92;;;;;;;;;;4993775;28;20218;-68
2023/03/27 14:56:19;;;;;;;1.95;1.40;;;;;;;;;;4993769;28;20201;-68
2023/03/27 14:58:48;;;;;;;1.85;1.52;;;;;;;;;;4994347;28;20527;-68
2023/03/27 15:01:16;;;;;;;2.25;1.40;;;;;;;;;;4993710;28;20208;-69